sensor_id;sensor_type;location;lat;lon;timestamp;P1;durP1;ratioP1;P2;durP2;ratioP2
22191;SDS011;11261;52.456;10.850;2024-03-08T00:00:40;17.80;;;9.82;;
22191;SDS011;11261;52.456;10.850;2024-03-08T00:03:10;22.05;;;11.00;;
22191;SDS011;11261;52.456;10.850;2024-03-08T00:05:39;21.17;;;10.35;;
22191;SDS011;11261;52.456;10.850;2024-03-08T00:08:08;18.65;;;10.43;;
22191;SDS011;11261;52.456;10.850;2024-03-08T00:10:37;21.38;;;9.65;;
22191;SDS011;11261;52.456;10.850;2024-03-08T00:13:06;20.85;;;9.85;;
22191;SDS011;11261;52.456;10.850;2024-03-08T00:15:34;19.45;;;10.43;;
22191;SDS011;11261;52.456;10.850;2024-03-08T00:18:03;19.15;;;9.10;;
22191;SDS011;11261;52.456;10.850;2024-03-08T00:20:33;19.52;;;8.90;;
22191;SDS011;11261;52.456;10.850;2024-03-08T00:23:02;20.55;;;10.48;;
22191;SDS011;11261;52.456;10.850;2024-03-08T00:25:30;24.35;;;11.38;;
22191;SDS011;11261;52.456;10.850;2024-03-08T00:27:58;21.92;;;10.82;;
22191;SDS011;11261;52.456;10.850;2024-03-08T00:30:27;22.33;;;10.65;;
22191;SDS011;11261;52.456;10.850;2024-03-08T00:32:57;26.70;;;11.20;;
22191;SDS011;11261;52.456;10.850;2024-03-08T00:35:26;18.98;;;9.82;;
22191;SDS011;11261;52.456;10.850;2024-03-08T00:37:56;18.83;;;9.98;;
22191;SDS011;11261;52.456;10.850;2024-03-08T00:40:24;19.95;;;10.23;;
22191;SDS011;11261;52.456;10.850;2024-03-08T00:42:54;23.73;;;11.07;;
22191;SDS011;11261;52.456;10.850;2024-03-08T00:45:23;23.33;;;9.80;;
22191;SDS011;11261;52.456;10.850;2024-03-08T00:47:51;20.80;;;10.30;;
22191;SDS011;11261;52.456;10.850;2024-03-08T00:50:20;19.67;;;10.07;;
22191;SDS011;11261;52.456;10.850;2024-03-08T00:52:49;22.20;;;11.00;;
22191;SDS011;11261;52.456;10.850;2024-03-08T00:55:19;20.55;;;10.95;;
22191;SDS011;11261;52.456;10.850;2024-03-08T00:57:48;21.35;;;10.57;;
22191;SDS011;11261;52.456;10.850;2024-03-08T01:00:17;21.25;;;10.35;;
22191;SDS011;11261;52.456;10.850;2024-03-08T01:02:47;25.48;;;10.57;;
22191;SDS011;11261;52.456;10.850;2024-03-08T01:05:16;23.05;;;10.00;;
22191;SDS011;11261;52.456;10.850;2024-03-08T01:07:45;25.23;;;11.00;;
22191;SDS011;11261;52.456;10.850;2024-03-08T01:10:14;22.17;;;10.55;;
22191;SDS011;11261;52.456;10.850;2024-03-08T01:12:44;24.95;;;12.13;;
22191;SDS011;11261;52.456;10.850;2024-03-08T01:15:12;22.80;;;10.88;;
22191;SDS011;11261;52.456;10.850;2024-03-08T01:17:41;22.75;;;10.52;;
22191;SDS011;11261;52.456;10.850;2024-03-08T01:20:10;25.73;;;11.35;;
22191;SDS011;11261;52.456;10.850;2024-03-08T01:22:40;24.38;;;11.45;;
22191;SDS011;11261;52.456;10.850;2024-03-08T01:25:09;26.13;;;12.75;;
22191;SDS011;11261;52.456;10.850;2024-03-08T01:27:37;24.77;;;12.35;;
22191;SDS011;11261;52.456;10.850;2024-03-08T01:30:07;22.33;;;11.02;;
22191;SDS011;11261;52.456;10.850;2024-03-08T01:32:37;21.60;;;10.65;;
22191;SDS011;11261;52.456;10.850;2024-03-08T01:35:06;20.00;;;10.27;;
22191;SDS011;11261;52.456;10.850;2024-03-08T01:37:36;24.90;;;10.65;;
22191;SDS011;11261;52.456;10.850;2024-03-08T01:40:05;21.08;;;9.95;;
22191;SDS011;11261;52.456;10.850;2024-03-08T01:42:35;23.75;;;11.25;;
22191;SDS011;11261;52.456;10.850;2024-03-08T01:45:04;24.15;;;10.05;;
22191;SDS011;11261;52.456;10.850;2024-03-08T01:47:35;22.15;;;10.60;;
22191;SDS011;11261;52.456;10.850;2024-03-08T01:50:05;21.65;;;10.60;;
22191;SDS011;11261;52.456;10.850;2024-03-08T01:52:33;22.30;;;10.38;;
22191;SDS011;11261;52.456;10.850;2024-03-08T01:55:02;22.02;;;10.63;;
22191;SDS011;11261;52.456;10.850;2024-03-08T01:57:34;20.30;;;9.85;;
22191;SDS011;11261;52.456;10.850;2024-03-08T02:00:05;24.05;;;9.48;;
22191;SDS011;11261;52.456;10.850;2024-03-08T02:02:38;20.27;;;9.57;;
22191;SDS011;11261;52.456;10.850;2024-03-08T02:05:11;23.58;;;10.25;;
22191;SDS011;11261;52.456;10.850;2024-03-08T02:07:40;19.27;;;10.20;;
22191;SDS011;11261;52.456;10.850;2024-03-08T02:10:10;21.88;;;10.05;;
22191;SDS011;11261;52.456;10.850;2024-03-08T02:12:40;21.83;;;10.05;;
22191;SDS011;11261;52.456;10.850;2024-03-08T02:15:09;19.00;;;8.70;;
22191;SDS011;11261;52.456;10.850;2024-03-08T02:17:39;21.58;;;9.32;;
22191;SDS011;11261;52.456;10.850;2024-03-08T02:20:09;21.17;;;9.23;;
22191;SDS011;11261;52.456;10.850;2024-03-08T02:22:41;21.33;;;11.30;;
22191;SDS011;11261;52.456;10.850;2024-03-08T02:25:10;22.25;;;10.25;;
22191;SDS011;11261;52.456;10.850;2024-03-08T02:27:39;25.20;;;10.70;;
22191;SDS011;11261;52.456;10.850;2024-03-08T02:30:08;26.05;;;11.63;;
22191;SDS011;11261;52.456;10.850;2024-03-08T02:32:39;21.70;;;10.32;;
22191;SDS011;11261;52.456;10.850;2024-03-08T02:35:08;25.38;;;11.60;;
22191;SDS011;11261;52.456;10.850;2024-03-08T02:37:37;25.10;;;14.07;;
22191;SDS011;11261;52.456;10.850;2024-03-08T02:40:07;23.88;;;11.77;;
22191;SDS011;11261;52.456;10.850;2024-03-08T02:42:36;28.63;;;11.70;;
22191;SDS011;11261;52.456;10.850;2024-03-08T02:45:04;28.13;;;12.73;;
22191;SDS011;11261;52.456;10.850;2024-03-08T02:47:33;26.37;;;12.53;;
22191;SDS011;11261;52.456;10.850;2024-03-08T02:50:02;28.10;;;12.27;;
22191;SDS011;11261;52.456;10.850;2024-03-08T02:52:31;24.50;;;13.10;;
22191;SDS011;11261;52.456;10.850;2024-03-08T02:55:00;26.73;;;11.77;;
22191;SDS011;11261;52.456;10.850;2024-03-08T02:57:30;32.37;;;14.00;;
22191;SDS011;11261;52.456;10.850;2024-03-08T02:59:58;28.58;;;15.40;;
22191;SDS011;11261;52.456;10.850;2024-03-08T03:02:27;27.53;;;11.87;;
22191;SDS011;11261;52.456;10.850;2024-03-08T03:04:56;27.40;;;12.77;;
22191;SDS011;11261;52.456;10.850;2024-03-08T03:07:25;25.50;;;13.67;;
22191;SDS011;11261;52.456;10.850;2024-03-08T03:09:54;31.53;;;17.30;;
22191;SDS011;11261;52.456;10.850;2024-03-08T03:12:23;30.83;;;13.63;;
22191;SDS011;11261;52.456;10.850;2024-03-08T03:14:53;27.90;;;13.73;;
22191;SDS011;11261;52.456;10.850;2024-03-08T03:17:23;28.85;;;14.55;;
22191;SDS011;11261;52.456;10.850;2024-03-08T03:19:52;33.38;;;16.08;;
22191;SDS011;11261;52.456;10.850;2024-03-08T03:22:21;30.40;;;17.95;;
22191;SDS011;11261;52.456;10.850;2024-03-08T03:24:51;28.33;;;16.00;;
22191;SDS011;11261;52.456;10.850;2024-03-08T03:27:20;32.42;;;17.02;;
22191;SDS011;11261;52.456;10.850;2024-03-08T03:29:49;22.57;;;11.40;;
22191;SDS011;11261;52.456;10.850;2024-03-08T03:32:20;27.30;;;13.63;;
22191;SDS011;11261;52.456;10.850;2024-03-08T03:34:50;28.90;;;14.43;;
22191;SDS011;11261;52.456;10.850;2024-03-08T03:37:19;32.58;;;17.77;;
22191;SDS011;11261;52.456;10.850;2024-03-08T03:39:48;30.17;;;14.57;;
22191;SDS011;11261;52.456;10.850;2024-03-08T03:42:18;33.40;;;15.90;;
22191;SDS011;11261;52.456;10.850;2024-03-08T03:44:47;31.03;;;14.53;;
22191;SDS011;11261;52.456;10.850;2024-03-08T03:47:16;31.77;;;14.03;;
22191;SDS011;11261;52.456;10.850;2024-03-08T03:49:46;28.60;;;14.90;;
22191;SDS011;11261;52.456;10.850;2024-03-08T03:52:15;28.87;;;13.03;;
22191;SDS011;11261;52.456;10.850;2024-03-08T03:54:43;30.90;;;16.53;;
22191;SDS011;11261;52.456;10.850;2024-03-08T03:57:12;31.60;;;14.80;;
22191;SDS011;11261;52.456;10.850;2024-03-08T03:59:41;30.60;;;13.97;;
22191;SDS011;11261;52.456;10.850;2024-03-08T04:02:09;30.37;;;14.57;;
22191;SDS011;11261;52.456;10.850;2024-03-08T04:04:38;33.30;;;13.03;;
22191;SDS011;11261;52.456;10.850;2024-03-08T04:07:08;28.90;;;14.10;;
22191;SDS011;11261;52.456;10.850;2024-03-08T04:09:37;30.50;;;16.43;;
22191;SDS011;11261;52.456;10.850;2024-03-08T04:12:06;31.40;;;15.03;;
22191;SDS011;11261;52.456;10.850;2024-03-08T04:14:36;28.57;;;14.97;;
22191;SDS011;11261;52.456;10.850;2024-03-08T04:17:06;30.97;;;15.17;;
22191;SDS011;11261;52.456;10.850;2024-03-08T04:19:35;34.80;;;16.20;;
22191;SDS011;11261;52.456;10.850;2024-03-08T04:22:05;30.00;;;14.17;;
22191;SDS011;11261;52.456;10.850;2024-03-08T04:24:35;34.50;;;15.40;;
22191;SDS011;11261;52.456;10.850;2024-03-08T04:27:04;32.87;;;14.57;;
22191;SDS011;11261;52.456;10.850;2024-03-08T04:29:33;38.37;;;16.83;;
22191;SDS011;11261;52.456;10.850;2024-03-08T04:32:03;36.20;;;17.40;;
22191;SDS011;11261;52.456;10.850;2024-03-08T04:34:32;33.27;;;16.37;;
22191;SDS011;11261;52.456;10.850;2024-03-08T04:37:01;29.80;;;13.47;;
22191;SDS011;11261;52.456;10.850;2024-03-08T04:39:31;32.63;;;16.23;;
22191;SDS011;11261;52.456;10.850;2024-03-08T04:42:02;32.93;;;15.53;;
22191;SDS011;11261;52.456;10.850;2024-03-08T04:44:33;34.53;;;17.67;;
22191;SDS011;11261;52.456;10.850;2024-03-08T04:47:01;32.97;;;16.13;;
22191;SDS011;11261;52.456;10.850;2024-03-08T04:49:32;34.70;;;17.00;;
22191;SDS011;11261;52.456;10.850;2024-03-08T04:52:01;40.13;;;17.50;;
22191;SDS011;11261;52.456;10.850;2024-03-08T04:54:30;33.83;;;15.97;;
22191;SDS011;11261;52.456;10.850;2024-03-08T04:56:59;36.90;;;18.80;;
22191;SDS011;11261;52.456;10.850;2024-03-08T04:59:34;36.10;;;17.00;;
22191;SDS011;11261;52.456;10.850;2024-03-08T05:02:03;35.37;;;19.10;;
22191;SDS011;11261;52.456;10.850;2024-03-08T05:04:33;31.20;;;15.57;;
22191;SDS011;11261;52.456;10.850;2024-03-08T05:07:02;34.37;;;16.10;;
22191;SDS011;11261;52.456;10.850;2024-03-08T05:09:31;32.93;;;16.47;;
22191;SDS011;11261;52.456;10.850;2024-03-08T05:12:00;31.10;;;15.33;;
22191;SDS011;11261;52.456;10.850;2024-03-08T05:14:29;32.63;;;15.87;;
22191;SDS011;11261;52.456;10.850;2024-03-08T05:16:59;37.73;;;17.20;;
22191;SDS011;11261;52.456;10.850;2024-03-08T05:19:28;27.73;;;11.10;;
22191;SDS011;11261;52.456;10.850;2024-03-08T05:22:00;30.77;;;15.83;;
22191;SDS011;11261;52.456;10.850;2024-03-08T05:24:29;29.23;;;14.53;;
22191;SDS011;11261;52.456;10.850;2024-03-08T05:26:58;41.83;;;19.50;;
22191;SDS011;11261;52.456;10.850;2024-03-08T05:29:27;34.93;;;16.20;;
22191;SDS011;11261;52.456;10.850;2024-03-08T05:31:56;41.70;;;19.30;;
22191;SDS011;11261;52.456;10.850;2024-03-08T05:34:27;41.60;;;19.13;;
22191;SDS011;11261;52.456;10.850;2024-03-08T05:36:56;32.27;;;15.27;;
22191;SDS011;11261;52.456;10.850;2024-03-08T05:39:25;42.63;;;19.67;;
22191;SDS011;11261;52.456;10.850;2024-03-08T05:41:54;34.27;;;15.13;;
22191;SDS011;11261;52.456;10.850;2024-03-08T05:44:23;37.13;;;18.13;;
22191;SDS011;11261;52.456;10.850;2024-03-08T05:46:51;35.90;;;17.47;;
22191;SDS011;11261;52.456;10.850;2024-03-08T05:49:20;33.77;;;17.13;;
22191;SDS011;11261;52.456;10.850;2024-03-08T05:51:50;43.23;;;19.43;;
22191;SDS011;11261;52.456;10.850;2024-03-08T05:54:20;37.30;;;16.20;;
22191;SDS011;11261;52.456;10.850;2024-03-08T05:56:51;40.70;;;18.57;;
22191;SDS011;11261;52.456;10.850;2024-03-08T05:59:21;38.83;;;17.93;;
22191;SDS011;11261;52.456;10.850;2024-03-08T06:01:50;37.67;;;19.23;;
22191;SDS011;11261;52.456;10.850;2024-03-08T06:04:19;35.90;;;15.00;;
22191;SDS011;11261;52.456;10.850;2024-03-08T06:06:49;44.50;;;19.73;;
22191;SDS011;11261;52.456;10.850;2024-03-08T06:09:18;38.43;;;17.70;;
22191;SDS011;11261;52.456;10.850;2024-03-08T06:11:50;31.87;;;15.10;;
22191;SDS011;11261;52.456;10.850;2024-03-08T06:14:21;34.07;;;16.77;;
22191;SDS011;11261;52.456;10.850;2024-03-08T06:16:50;35.43;;;17.73;;
22191;SDS011;11261;52.456;10.850;2024-03-08T06:19:19;27.37;;;13.47;;
22191;SDS011;11261;52.456;10.850;2024-03-08T06:21:47;36.30;;;17.70;;
22191;SDS011;11261;52.456;10.850;2024-03-08T06:24:17;33.27;;;14.23;;
22191;SDS011;11261;52.456;10.850;2024-03-08T06:26:46;38.23;;;17.83;;
22191;SDS011;11261;52.456;10.850;2024-03-08T06:29:15;34.60;;;16.77;;
22191;SDS011;11261;52.456;10.850;2024-03-08T06:31:44;45.97;;;20.63;;
22191;SDS011;11261;52.456;10.850;2024-03-08T06:34:13;37.20;;;17.80;;
22191;SDS011;11261;52.456;10.850;2024-03-08T06:36:42;40.33;;;15.80;;
22191;SDS011;11261;52.456;10.850;2024-03-08T06:39:10;33.83;;;17.43;;
22191;SDS011;11261;52.456;10.850;2024-03-08T06:41:41;32.57;;;17.40;;
22191;SDS011;11261;52.456;10.850;2024-03-08T06:44:11;38.77;;;17.73;;
22191;SDS011;11261;52.456;10.850;2024-03-08T06:46:40;36.40;;;19.17;;
22191;SDS011;11261;52.456;10.850;2024-03-08T06:49:09;39.63;;;19.30;;
22191;SDS011;11261;52.456;10.850;2024-03-08T06:51:37;35.87;;;19.20;;
22191;SDS011;11261;52.456;10.850;2024-03-08T06:54:07;31.27;;;16.30;;
22191;SDS011;11261;52.456;10.850;2024-03-08T06:56:36;32.67;;;17.90;;
22191;SDS011;11261;52.456;10.850;2024-03-08T06:59:06;34.77;;;15.83;;
22191;SDS011;11261;52.456;10.850;2024-03-08T07:01:39;33.63;;;18.07;;
22191;SDS011;11261;52.456;10.850;2024-03-08T07:04:08;33.70;;;17.57;;
22191;SDS011;11261;52.456;10.850;2024-03-08T07:06:38;36.22;;;16.85;;
22191;SDS011;11261;52.456;10.850;2024-03-08T07:09:07;35.25;;;18.27;;
22191;SDS011;11261;52.456;10.850;2024-03-08T07:11:36;31.27;;;17.85;;
22191;SDS011;11261;52.456;10.850;2024-03-08T07:14:09;28.25;;;15.25;;
22191;SDS011;11261;52.456;10.850;2024-03-08T07:16:38;28.88;;;15.65;;
22191;SDS011;11261;52.456;10.850;2024-03-08T07:19:07;32.45;;;17.88;;
22191;SDS011;11261;52.456;10.850;2024-03-08T07:21:36;33.95;;;17.80;;
22191;SDS011;11261;52.456;10.850;2024-03-08T07:24:05;30.63;;;19.10;;
22191;SDS011;11261;52.456;10.850;2024-03-08T07:26:51;28.52;;;14.13;;
22191;SDS011;11261;52.456;10.850;2024-03-08T07:29:21;29.65;;;16.20;;
22191;SDS011;11261;52.456;10.850;2024-03-08T07:31:49;30.13;;;18.38;;
22191;SDS011;11261;52.456;10.850;2024-03-08T07:34:28;22.80;;;12.00;;
22191;SDS011;11261;52.456;10.850;2024-03-08T07:36:58;31.73;;;20.27;;
22191;SDS011;11261;52.456;10.850;2024-03-08T07:39:27;33.25;;;21.25;;
22191;SDS011;11261;52.456;10.850;2024-03-08T07:41:55;46.25;;;18.25;;
22191;SDS011;11261;52.456;10.850;2024-03-08T07:44:26;27.73;;;17.67;;
22191;SDS011;11261;52.456;10.850;2024-03-08T07:46:56;30.52;;;19.17;;
22191;SDS011;11261;52.456;10.850;2024-03-08T07:49:25;33.45;;;17.80;;
22191;SDS011;11261;52.456;10.850;2024-03-08T07:51:54;27.33;;;15.05;;
22191;SDS011;11261;52.456;10.850;2024-03-08T07:54:22;28.80;;;16.52;;
22191;SDS011;11261;52.456;10.850;2024-03-08T07:56:52;27.45;;;15.68;;
22191;SDS011;11261;52.456;10.850;2024-03-08T07:59:21;30.33;;;17.67;;
22191;SDS011;11261;52.456;10.850;2024-03-08T08:01:51;28.85;;;17.73;;
22191;SDS011;11261;52.456;10.850;2024-03-08T08:04:20;28.00;;;16.75;;
22191;SDS011;11261;52.456;10.850;2024-03-08T08:06:51;28.10;;;15.20;;
22191;SDS011;11261;52.456;10.850;2024-03-08T08:09:21;28.08;;;15.60;;
22191;SDS011;11261;52.456;10.850;2024-03-08T08:12:01;34.13;;;16.02;;
22191;SDS011;11261;52.456;10.850;2024-03-08T08:14:30;34.08;;;16.67;;
22191;SDS011;11261;52.456;10.850;2024-03-08T08:17:00;33.50;;;18.45;;
22191;SDS011;11261;52.456;10.850;2024-03-08T08:19:31;29.42;;;16.55;;
22191;SDS011;11261;52.456;10.850;2024-03-08T08:22:00;26.15;;;15.50;;
22191;SDS011;11261;52.456;10.850;2024-03-08T08:24:29;29.45;;;16.50;;
22191;SDS011;11261;52.456;10.850;2024-03-08T08:26:58;31.40;;;17.23;;
22191;SDS011;11261;52.456;10.850;2024-03-08T08:29:27;28.52;;;15.82;;
22191;SDS011;11261;52.456;10.850;2024-03-08T08:31:57;24.92;;;15.38;;
22191;SDS011;11261;52.456;10.850;2024-03-08T08:34:30;29.00;;;16.50;;
22191;SDS011;11261;52.456;10.850;2024-03-08T08:36:59;27.42;;;16.38;;
22191;SDS011;11261;52.456;10.850;2024-03-08T08:39:28;27.08;;;17.20;;
22191;SDS011;11261;52.456;10.850;2024-03-08T08:41:57;31.23;;;19.55;;
22191;SDS011;11261;52.456;10.850;2024-03-08T08:44:25;24.38;;;15.63;;
22191;SDS011;11261;52.456;10.850;2024-03-08T08:46:54;29.15;;;17.50;;
22191;SDS011;11261;52.456;10.850;2024-03-08T08:49:36;27.15;;;16.88;;
22191;SDS011;11261;52.456;10.850;2024-03-08T08:52:05;27.10;;;18.65;;
22191;SDS011;11261;52.456;10.850;2024-03-08T08:54:42;30.00;;;17.50;;
22191;SDS011;11261;52.456;10.850;2024-03-08T08:57:15;27.02;;;15.95;;
22191;SDS011;11261;52.456;10.850;2024-03-08T08:59:44;30.23;;;17.30;;
22191;SDS011;11261;52.456;10.850;2024-03-08T09:02:13;27.00;;;18.00;;
22191;SDS011;11261;52.456;10.850;2024-03-08T09:04:46;28.60;;;17.52;;
22191;SDS011;11261;52.456;10.850;2024-03-08T09:07:15;31.48;;;19.90;;
22191;SDS011;11261;52.456;10.850;2024-03-08T09:09:45;26.25;;;17.52;;
22191;SDS011;11261;52.456;10.850;2024-03-08T09:12:14;25.95;;;17.15;;
22191;SDS011;11261;52.456;10.850;2024-03-08T09:14:43;28.30;;;17.92;;
22191;SDS011;11261;52.456;10.850;2024-03-08T09:17:12;27.33;;;15.15;;
22191;SDS011;11261;52.456;10.850;2024-03-08T09:19:43;26.42;;;15.85;;
22191;SDS011;11261;52.456;10.850;2024-03-08T09:22:14;29.50;;;16.77;;
22191;SDS011;11261;52.456;10.850;2024-03-08T09:24:42;30.88;;;18.55;;
22191;SDS011;11261;52.456;10.850;2024-03-08T09:27:12;30.88;;;20.38;;
22191;SDS011;11261;52.456;10.850;2024-03-08T09:29:41;29.08;;;20.25;;
22191;SDS011;11261;52.456;10.850;2024-03-08T09:32:11;27.83;;;17.17;;
22191;SDS011;11261;52.456;10.850;2024-03-08T09:34:40;28.15;;;17.33;;
22191;SDS011;11261;52.456;10.850;2024-03-08T09:37:08;29.13;;;18.20;;
22191;SDS011;11261;52.456;10.850;2024-03-08T09:39:39;29.13;;;16.90;;
22191;SDS011;11261;52.456;10.850;2024-03-08T09:42:07;28.48;;;16.30;;
22191;SDS011;11261;52.456;10.850;2024-03-08T09:44:37;30.60;;;18.95;;
22191;SDS011;11261;52.456;10.850;2024-03-08T09:47:06;28.20;;;21.52;;
22191;SDS011;11261;52.456;10.850;2024-03-08T09:49:34;33.00;;;18.88;;
22191;SDS011;11261;52.456;10.850;2024-03-08T09:52:04;29.55;;;17.98;;
22191;SDS011;11261;52.456;10.850;2024-03-08T09:54:34;30.90;;;21.27;;
22191;SDS011;11261;52.456;10.850;2024-03-08T09:57:04;31.30;;;19.42;;
22191;SDS011;11261;52.456;10.850;2024-03-08T09:59:36;29.95;;;19.98;;
22191;SDS011;11261;52.456;10.850;2024-03-08T10:02:15;30.20;;;19.67;;
22191;SDS011;11261;52.456;10.850;2024-03-08T10:04:45;27.20;;;16.65;;
22191;SDS011;11261;52.456;10.850;2024-03-08T10:07:17;26.02;;;16.63;;
22191;SDS011;11261;52.456;10.850;2024-03-08T10:09:45;26.50;;;18.95;;
22191;SDS011;11261;52.456;10.850;2024-03-08T10:12:18;28.10;;;15.90;;
22191;SDS011;11261;52.456;10.850;2024-03-08T10:14:48;26.08;;;17.85;;
22191;SDS011;11261;52.456;10.850;2024-03-08T10:17:16;27.67;;;16.30;;
22191;SDS011;11261;52.456;10.850;2024-03-08T10:19:51;27.25;;;17.85;;
22191;SDS011;11261;52.456;10.850;2024-03-08T10:22:20;26.95;;;17.73;;
22191;SDS011;11261;52.456;10.850;2024-03-08T10:24:49;31.13;;;19.15;;
22191;SDS011;11261;52.456;10.850;2024-03-08T10:27:19;28.95;;;17.63;;
22191;SDS011;11261;52.456;10.850;2024-03-08T10:29:48;27.15;;;17.98;;
22191;SDS011;11261;52.456;10.850;2024-03-08T10:32:18;28.23;;;18.67;;
22191;SDS011;11261;52.456;10.850;2024-03-08T10:34:47;25.90;;;17.05;;
22191;SDS011;11261;52.456;10.850;2024-03-08T10:37:17;25.92;;;18.67;;
22191;SDS011;11261;52.456;10.850;2024-03-08T10:39:53;27.23;;;18.05;;
22191;SDS011;11261;52.456;10.850;2024-03-08T10:42:28;24.17;;;15.25;;
22191;SDS011;11261;52.456;10.850;2024-03-08T10:45:05;27.48;;;19.80;;
22191;SDS011;11261;52.456;10.850;2024-03-08T10:47:35;26.17;;;15.77;;
22191;SDS011;11261;52.456;10.850;2024-03-08T10:50:08;23.58;;;15.70;;
22191;SDS011;11261;52.456;10.850;2024-03-08T10:52:39;23.92;;;14.32;;
22191;SDS011;11261;52.456;10.850;2024-03-08T10:55:08;22.20;;;17.05;;
22191;SDS011;11261;52.456;10.850;2024-03-08T10:57:40;25.30;;;17.27;;
22191;SDS011;11261;52.456;10.850;2024-03-08T11:00:09;24.38;;;16.50;;
22191;SDS011;11261;52.456;10.850;2024-03-08T11:02:38;25.13;;;16.58;;
22191;SDS011;11261;52.456;10.850;2024-03-08T11:05:10;25.13;;;16.48;;
22191;SDS011;11261;52.456;10.850;2024-03-08T11:07:40;21.38;;;13.82;;
22191;SDS011;11261;52.456;10.850;2024-03-08T11:10:18;24.25;;;17.38;;
22191;SDS011;11261;52.456;10.850;2024-03-08T11:12:48;22.25;;;17.25;;
22191;SDS011;11261;52.456;10.850;2024-03-08T11:15:17;26.95;;;17.13;;
22191;SDS011;11261;52.456;10.850;2024-03-08T11:17:46;23.95;;;18.83;;
22191;SDS011;11261;52.456;10.850;2024-03-08T11:20:15;25.17;;;17.15;;
22191;SDS011;11261;52.456;10.850;2024-03-08T11:22:50;27.70;;;14.55;;
22191;SDS011;11261;52.456;10.850;2024-03-08T11:25:32;22.15;;;17.58;;
22191;SDS011;11261;52.456;10.850;2024-03-08T11:33:35;21.67;;;17.20;;
22191;SDS011;11261;52.456;10.850;2024-03-08T11:36:07;22.17;;;13.65;;
22191;SDS011;11261;52.456;10.850;2024-03-08T11:38:39;20.55;;;16.52;;
22191;SDS011;11261;52.456;10.850;2024-03-08T11:41:08;24.13;;;14.38;;
22191;SDS011;11261;52.456;10.850;2024-03-08T11:43:44;20.98;;;16.25;;
22191;SDS011;11261;52.456;10.850;2024-03-08T11:46:14;21.15;;;15.63;;
22191;SDS011;11261;52.456;10.850;2024-03-08T11:48:44;21.00;;;15.60;;
22191;SDS011;11261;52.456;10.850;2024-03-08T11:51:15;21.02;;;17.15;;
22191;SDS011;11261;52.456;10.850;2024-03-08T11:53:45;21.88;;;14.68;;
22191;SDS011;11261;52.456;10.850;2024-03-08T11:56:14;21.48;;;16.00;;
22191;SDS011;11261;52.456;10.850;2024-03-08T11:58:52;21.65;;;14.95;;
22191;SDS011;11261;52.456;10.850;2024-03-08T12:01:22;23.33;;;13.95;;
22191;SDS011;11261;52.456;10.850;2024-03-08T12:03:53;21.80;;;15.27;;
22191;SDS011;11261;52.456;10.850;2024-03-08T12:06:25;21.52;;;17.05;;
22191;SDS011;11261;52.456;10.850;2024-03-08T12:08:54;22.27;;;12.45;;
22191;SDS011;11261;52.456;10.850;2024-03-08T12:11:22;22.30;;;14.00;;
22191;SDS011;11261;52.456;10.850;2024-03-08T12:13:55;24.15;;;14.82;;
22191;SDS011;11261;52.456;10.850;2024-03-08T12:16:24;25.02;;;16.17;;
22191;SDS011;11261;52.456;10.850;2024-03-08T12:18:55;21.92;;;13.77;;
22191;SDS011;11261;52.456;10.850;2024-03-08T12:21:25;24.60;;;17.05;;
22191;SDS011;11261;52.456;10.850;2024-03-08T12:24:03;21.05;;;14.20;;
22191;SDS011;11261;52.456;10.850;2024-03-08T12:26:32;20.23;;;14.88;;
22191;SDS011;11261;52.456;10.850;2024-03-08T12:29:17;22.25;;;14.02;;
22191;SDS011;11261;52.456;10.850;2024-03-08T12:31:47;23.70;;;16.75;;
22191;SDS011;11261;52.456;10.850;2024-03-08T12:34:17;20.27;;;15.77;;
22191;SDS011;11261;52.456;10.850;2024-03-08T12:36:46;20.27;;;13.95;;
22191;SDS011;11261;52.456;10.850;2024-03-08T12:39:18;20.77;;;13.07;;
22191;SDS011;11261;52.456;10.850;2024-03-08T12:41:54;24.77;;;14.77;;
22191;SDS011;11261;52.456;10.850;2024-03-08T12:44:24;21.67;;;14.88;;
22191;SDS011;11261;52.456;10.850;2024-03-08T12:46:54;21.10;;;14.60;;
22191;SDS011;11261;52.456;10.850;2024-03-08T12:49:27;22.73;;;14.00;;
22191;SDS011;11261;52.456;10.850;2024-03-08T12:51:57;24.05;;;14.90;;
22191;SDS011;11261;52.456;10.850;2024-03-08T12:54:26;18.55;;;12.57;;
22191;SDS011;11261;52.456;10.850;2024-03-08T12:56:54;18.05;;;13.63;;
22191;SDS011;11261;52.456;10.850;2024-03-08T12:59:23;20.70;;;13.00;;
22191;SDS011;11261;52.456;10.850;2024-03-08T13:01:51;21.92;;;15.90;;
22191;SDS011;11261;52.456;10.850;2024-03-08T13:04:22;21.13;;;14.27;;
22191;SDS011;11261;52.456;10.850;2024-03-08T13:06:53;19.05;;;13.18;;
22191;SDS011;11261;52.456;10.850;2024-03-08T13:09:22;18.08;;;12.48;;
22191;SDS011;11261;52.456;10.850;2024-03-08T13:11:53;19.35;;;12.25;;
22191;SDS011;11261;52.456;10.850;2024-03-08T13:14:25;18.88;;;13.80;;
22191;SDS011;11261;52.456;10.850;2024-03-08T13:16:58;17.42;;;11.20;;
22191;SDS011;11261;52.456;10.850;2024-03-08T13:19:26;19.13;;;13.35;;
22191;SDS011;11261;52.456;10.850;2024-03-08T13:21:56;19.13;;;13.48;;
22191;SDS011;11261;52.456;10.850;2024-03-08T13:24:25;18.23;;;13.10;;
22191;SDS011;11261;52.456;10.850;2024-03-08T13:26:54;18.02;;;14.02;;
22191;SDS011;11261;52.456;10.850;2024-03-08T13:29:22;20.13;;;12.82;;
22191;SDS011;11261;52.456;10.850;2024-03-08T13:31:51;18.67;;;11.02;;
22191;SDS011;11261;52.456;10.850;2024-03-08T13:34:23;18.80;;;10.73;;
22191;SDS011;11261;52.456;10.850;2024-03-08T13:36:57;18.83;;;12.77;;
22191;SDS011;11261;52.456;10.850;2024-03-08T13:39:27;17.75;;;10.88;;
22191;SDS011;11261;52.456;10.850;2024-03-08T13:42:01;13.80;;;10.05;;
22191;SDS011;11261;52.456;10.850;2024-03-08T13:44:36;18.27;;;11.82;;
22191;SDS011;11261;52.456;10.850;2024-03-08T13:47:04;17.90;;;13.23;;
22191;SDS011;11261;52.456;10.850;2024-03-08T13:49:33;18.58;;;12.00;;
22191;SDS011;11261;52.456;10.850;2024-03-08T13:52:05;15.13;;;10.75;;
22191;SDS011;11261;52.456;10.850;2024-03-08T13:54:34;15.43;;;10.60;;
22191;SDS011;11261;52.456;10.850;2024-03-08T13:57:03;14.57;;;10.25;;
22191;SDS011;11261;52.456;10.850;2024-03-08T13:59:34;14.32;;;10.38;;
22191;SDS011;11261;52.456;10.850;2024-03-08T14:02:04;14.65;;;10.07;;
22191;SDS011;11261;52.456;10.850;2024-03-08T14:04:37;16.60;;;10.45;;
22191;SDS011;11261;52.456;10.850;2024-03-08T14:07:07;15.85;;;10.60;;
22191;SDS011;11261;52.456;10.850;2024-03-08T14:09:37;16.58;;;10.90;;
22191;SDS011;11261;52.456;10.850;2024-03-08T14:12:09;14.63;;;9.65;;
22191;SDS011;11261;52.456;10.850;2024-03-08T14:14:37;14.30;;;8.20;;
22191;SDS011;11261;52.456;10.850;2024-03-08T14:17:06;13.40;;;9.65;;
22191;SDS011;11261;52.456;10.850;2024-03-08T14:19:37;13.70;;;8.15;;
22191;SDS011;11261;52.456;10.850;2024-03-08T14:22:08;13.75;;;9.00;;
22191;SDS011;11261;52.456;10.850;2024-03-08T14:24:39;13.32;;;10.93;;
22191;SDS011;11261;52.456;10.850;2024-03-08T14:27:08;13.75;;;9.30;;
22191;SDS011;11261;52.456;10.850;2024-03-08T14:29:38;14.93;;;9.65;;